sensor_id;sensor_type;location;lat;lon;timestamp;P1;durP1;ratioP1;P2;durP2;ratioP2
20318;SDS011;10317;47.254;11.314;2023-01-28T00:18:42;24.85;;;14.98;;
20318;SDS011;10317;47.254;11.314;2023-01-28T00:21:11;24.20;;;14.48;;
20318;SDS011;10317;47.254;11.314;2023-01-28T00:23:39;23.83;;;13.90;;
20318;SDS011;10317;47.254;11.314;2023-01-28T00:26:07;23.83;;;14.13;;
20318;SDS011;10317;47.254;11.314;2023-01-28T00:28:36;25.27;;;14.00;;
20318;SDS011;10317;47.254;11.314;2023-01-28T00:31:08;22.95;;;13.70;;
20318;SDS011;10317;47.254;11.314;2023-01-28T00:33:45;26.77;;;16.02;;
20318;SDS011;10317;47.254;11.314;2023-01-28T00:36:12;24.30;;;14.68;;
20318;SDS011;10317;47.254;11.314;2023-01-28T00:38:39;23.17;;;14.45;;
20318;SDS011;10317;47.254;11.314;2023-01-28T00:41:16;24.67;;;15.25;;
20318;SDS011;10317;47.254;11.314;2023-01-28T00:43:46;24.60;;;13.65;;
20318;SDS011;10317;47.254;11.314;2023-01-28T00:46:12;25.35;;;14.27;;
20318;SDS011;10317;47.254;11.314;2023-01-28T00:48:38;25.35;;;15.68;;
20318;SDS011;10317;47.254;11.314;2023-01-28T00:51:06;26.38;;;14.48;;
20318;SDS011;10317;47.254;11.314;2023-01-28T00:53:33;24.65;;;14.43;;
20318;SDS011;10317;47.254;11.314;2023-01-28T00:56:00;24.25;;;14.43;;
20318;SDS011;10317;47.254;11.314;2023-01-28T00:58:26;25.23;;;14.32;;
20318;SDS011;10317;47.254;11.314;2023-01-28T01:00:52;26.48;;;15.18;;
20318;SDS011;10317;47.254;11.314;2023-01-28T01:03:17;27.58;;;15.20;;
20318;SDS011;10317;47.254;11.314;2023-01-28T01:05:44;22.38;;;14.27;;
20318;SDS011;10317;47.254;11.314;2023-01-28T01:08:10;24.88;;;14.60;;
20318;SDS011;10317;47.254;11.314;2023-01-28T01:10:37;24.90;;;13.88;;
20318;SDS011;10317;47.254;11.314;2023-01-28T01:13:04;25.88;;;14.90;;
20318;SDS011;10317;47.254;11.314;2023-01-28T01:15:31;28.65;;;14.85;;
20318;SDS011;10317;47.254;11.314;2023-01-28T01:17:57;26.27;;;14.98;;
20318;SDS011;10317;47.254;11.314;2023-01-28T01:20:25;20.13;;;14.32;;
20318;SDS011;10317;47.254;11.314;2023-01-28T01:22:53;28.38;;;16.38;;
20318;SDS011;10317;47.254;11.314;2023-01-28T01:25:21;29.98;;;17.02;;
20318;SDS011;10317;47.254;11.314;2023-01-28T01:27:47;32.42;;;17.92;;
20318;SDS011;10317;47.254;11.314;2023-01-28T01:30:14;34.10;;;18.98;;
20318;SDS011;10317;47.254;11.314;2023-01-28T01:32:40;31.30;;;16.98;;
20318;SDS011;10317;47.254;11.314;2023-01-28T01:35:07;32.15;;;16.25;;
20318;SDS011;10317;47.254;11.314;2023-01-28T01:37:37;31.15;;;16.13;;
20318;SDS011;10317;47.254;11.314;2023-01-28T01:40:03;30.73;;;17.02;;
20318;SDS011;10317;47.254;11.314;2023-01-28T01:42:32;30.42;;;14.85;;
20318;SDS011;10317;47.254;11.314;2023-01-28T01:45:02;26.20;;;14.95;;
20318;SDS011;10317;47.254;11.314;2023-01-28T01:52:48;27.98;;;15.52;;
20318;SDS011;10317;47.254;11.314;2023-01-28T01:55:18;27.73;;;16.23;;
20318;SDS011;10317;47.254;11.314;2023-01-28T01:57:48;31.35;;;18.40;;
20318;SDS011;10317;47.254;11.314;2023-01-28T02:00:17;26.85;;;16.33;;
20318;SDS011;10317;47.254;11.314;2023-01-28T02:02:44;31.63;;;17.23;;
20318;SDS011;10317;47.254;11.314;2023-01-28T02:05:13;33.97;;;18.58;;
20318;SDS011;10317;47.254;11.314;2023-01-28T02:07:44;37.28;;;18.48;;
20318;SDS011;10317;47.254;11.314;2023-01-28T02:10:11;32.00;;;18.02;;
20318;SDS011;10317;47.254;11.314;2023-01-28T02:12:42;33.45;;;17.48;;
20318;SDS011;10317;47.254;11.314;2023-01-28T02:15:15;28.40;;;17.70;;
20318;SDS011;10317;47.254;11.314;2023-01-28T02:17:44;34.67;;;18.45;;
20318;SDS011;10317;47.254;11.314;2023-01-28T02:20:11;33.05;;;17.75;;
20318;SDS011;10317;47.254;11.314;2023-01-28T02:34:39;28.02;;;17.33;;
20318;SDS011;10317;47.254;11.314;2023-01-28T02:39:56;29.30;;;16.73;;
20318;SDS011;10317;47.254;11.314;2023-01-28T02:42:29;33.05;;;18.33;;
20318;SDS011;10317;47.254;11.314;2023-01-28T02:44:57;34.63;;;19.48;;
20318;SDS011;10317;47.254;11.314;2023-01-28T02:47:23;34.33;;;20.05;;
20318;SDS011;10317;47.254;11.314;2023-01-28T02:50:08;37.50;;;21.08;;
20318;SDS011;10317;47.254;11.314;2023-01-28T02:52:50;45.70;;;23.25;;
20318;SDS011;10317;47.254;11.314;2023-01-28T03:01:25;36.10;;;20.20;;
20318;SDS011;10317;47.254;11.314;2023-01-28T03:03:58;35.63;;;18.88;;
20318;SDS011;10317;47.254;11.314;2023-01-28T03:06:51;36.80;;;20.05;;
20318;SDS011;10317;47.254;11.314;2023-01-28T03:09:17;36.45;;;20.45;;
20318;SDS011;10317;47.254;11.314;2023-01-28T03:11:50;35.05;;;20.42;;
20318;SDS011;10317;47.254;11.314;2023-01-28T03:14:35;35.15;;;20.42;;
20318;SDS011;10317;47.254;11.314;2023-01-28T03:17:23;29.75;;;18.83;;
20318;SDS011;10317;47.254;11.314;2023-01-28T03:20:21;38.55;;;19.35;;
20318;SDS011;10317;47.254;11.314;2023-01-28T03:23:10;37.88;;;21.33;;
20318;SDS011;10317;47.254;11.314;2023-01-28T03:25:59;40.67;;;20.52;;
20318;SDS011;10317;47.254;11.314;2023-01-28T03:28:46;34.75;;;20.60;;
20318;SDS011;10317;47.254;11.314;2023-01-28T03:31:32;38.58;;;21.45;;
20318;SDS011;10317;47.254;11.314;2023-01-28T03:34:19;35.90;;;19.42;;
20318;SDS011;10317;47.254;11.314;2023-01-28T03:37:04;34.13;;;20.00;;
20318;SDS011;10317;47.254;11.314;2023-01-28T03:39:31;31.52;;;20.45;;
20318;SDS011;10317;47.254;11.314;2023-01-28T03:44:26;40.20;;;20.52;;
20318;SDS011;10317;47.254;11.314;2023-01-28T03:47:10;34.97;;;20.45;;
20318;SDS011;10317;47.254;11.314;2023-01-28T03:49:37;35.53;;;20.02;;
20318;SDS011;10317;47.254;11.314;2023-01-28T03:52:09;33.58;;;20.10;;
20318;SDS011;10317;47.254;11.314;2023-01-28T03:54:39;35.58;;;20.55;;
20318;SDS011;10317;47.254;11.314;2023-01-28T03:57:16;35.47;;;20.00;;
20318;SDS011;10317;47.254;11.314;2023-01-28T03:59:44;31.13;;;18.27;;
20318;SDS011;10317;47.254;11.314;2023-01-28T04:02:10;31.52;;;19.63;;
20318;SDS011;10317;47.254;11.314;2023-01-28T04:04:39;35.78;;;19.70;;
20318;SDS011;10317;47.254;11.314;2023-01-28T04:07:07;31.75;;;19.13;;
20318;SDS011;10317;47.254;11.314;2023-01-28T04:09:37;36.05;;;19.20;;
20318;SDS011;10317;47.254;11.314;2023-01-28T04:12:03;34.83;;;19.80;;
20318;SDS011;10317;47.254;11.314;2023-01-28T04:14:30;34.00;;;18.67;;
20318;SDS011;10317;47.254;11.314;2023-01-28T04:16:56;30.02;;;18.75;;
20318;SDS011;10317;47.254;11.314;2023-01-28T04:19:22;36.28;;;19.52;;
20318;SDS011;10317;47.254;11.314;2023-01-28T04:21:48;29.20;;;18.33;;
20318;SDS011;10317;47.254;11.314;2023-01-28T04:24:15;29.00;;;17.80;;
20318;SDS011;10317;47.254;11.314;2023-01-28T04:26:41;33.30;;;18.38;;
20318;SDS011;10317;47.254;11.314;2023-01-28T04:29:06;32.55;;;18.90;;
20318;SDS011;10317;47.254;11.314;2023-01-28T04:31:32;31.38;;;18.42;;
20318;SDS011;10317;47.254;11.314;2023-01-28T05:24:45;31.40;;;18.92;;
20318;SDS011;10317;47.254;11.314;2023-01-28T05:27:14;31.60;;;18.40;;
20318;SDS011;10317;47.254;11.314;2023-01-28T05:29:42;29.63;;;18.50;;
20318;SDS011;10317;47.254;11.314;2023-01-28T05:32:08;31.65;;;19.38;;
20318;SDS011;10317;47.254;11.314;2023-01-28T05:34:33;31.88;;;18.08;;
20318;SDS011;10317;47.254;11.314;2023-01-28T05:37:02;32.85;;;18.45;;
20318;SDS011;10317;47.254;11.314;2023-01-28T05:39:28;30.67;;;17.67;;
20318;SDS011;10317;47.254;11.314;2023-01-28T05:41:53;30.85;;;17.92;;
20318;SDS011;10317;47.254;11.314;2023-01-28T05:44:19;32.13;;;18.33;;
20318;SDS011;10317;47.254;11.314;2023-01-28T05:46:45;31.40;;;17.40;;
20318;SDS011;10317;47.254;11.314;2023-01-28T05:49:11;32.78;;;18.63;;
20318;SDS011;10317;47.254;11.314;2023-01-28T05:51:41;30.88;;;17.85;;
20318;SDS011;10317;47.254;11.314;2023-01-28T05:54:08;30.00;;;17.80;;
20318;SDS011;10317;47.254;11.314;2023-01-28T05:56:37;31.38;;;18.17;;
20318;SDS011;10317;47.254;11.314;2023-01-28T05:59:04;31.52;;;17.98;;
20318;SDS011;10317;47.254;11.314;2023-01-28T06:01:30;31.25;;;17.10;;
20318;SDS011;10317;47.254;11.314;2023-01-28T06:03:56;33.95;;;18.30;;
20318;SDS011;10317;47.254;11.314;2023-01-28T06:06:24;33.47;;;17.65;;
20318;SDS011;10317;47.254;11.314;2023-01-28T06:08:50;31.08;;;16.95;;
20318;SDS011;10317;47.254;11.314;2023-01-28T06:11:16;30.52;;;19.00;;
20318;SDS011;10317;47.254;11.314;2023-01-28T06:13:42;33.03;;;18.77;;
20318;SDS011;10317;47.254;11.314;2023-01-28T06:16:08;33.47;;;18.67;;
20318;SDS011;10317;47.254;11.314;2023-01-28T06:18:36;32.28;;;18.05;;
20318;SDS011;10317;47.254;11.314;2023-01-28T06:21:02;32.92;;;17.92;;
20318;SDS011;10317;47.254;11.314;2023-01-28T06:23:27;29.88;;;17.20;;
20318;SDS011;10317;47.254;11.314;2023-01-28T06:25:54;32.28;;;17.77;;
20318;SDS011;10317;47.254;11.314;2023-01-28T06:28:21;29.45;;;17.83;;
20318;SDS011;10317;47.254;11.314;2023-01-28T06:30:50;31.17;;;17.50;;
20318;SDS011;10317;47.254;11.314;2023-01-28T06:33:17;34.83;;;18.73;;
20318;SDS011;10317;47.254;11.314;2023-01-28T06:35:43;31.95;;;18.50;;
20318;SDS011;10317;47.254;11.314;2023-01-28T06:38:10;30.70;;;17.80;;
20318;SDS011;10317;47.254;11.314;2023-01-28T06:40:36;33.08;;;18.83;;
20318;SDS011;10317;47.254;11.314;2023-01-28T06:43:03;33.72;;;19.48;;
20318;SDS011;10317;47.254;11.314;2023-01-28T06:45:29;32.35;;;18.98;;
20318;SDS011;10317;47.254;11.314;2023-01-28T06:47:55;34.67;;;19.73;;
20318;SDS011;10317;47.254;11.314;2023-01-28T06:50:21;34.25;;;18.48;;
20318;SDS011;10317;47.254;11.314;2023-01-28T06:52:50;32.38;;;19.85;;
20318;SDS011;10317;47.254;11.314;2023-01-28T06:55:33;35.70;;;22.05;;
20318;SDS011;10317;47.254;11.314;2023-01-28T06:57:59;35.65;;;21.13;;
20318;SDS011;10317;47.254;11.314;2023-01-28T07:00:25;37.38;;;20.08;;
20318;SDS011;10317;47.254;11.314;2023-01-28T07:02:53;33.75;;;20.33;;
20318;SDS011;10317;47.254;11.314;2023-01-28T07:05:21;30.98;;;19.20;;
20318;SDS011;10317;47.254;11.314;2023-01-28T07:07:46;33.13;;;19.48;;
20318;SDS011;10317;47.254;11.314;2023-01-28T07:10:12;39.08;;;20.75;;
20318;SDS011;10317;47.254;11.314;2023-01-28T07:12:38;38.17;;;20.42;;
20318;SDS011;10317;47.254;11.314;2023-01-28T07:15:05;40.17;;;22.15;;
20318;SDS011;10317;47.254;11.314;2023-01-28T07:17:31;33.78;;;20.02;;
20318;SDS011;10317;47.254;11.314;2023-01-28T07:19:56;37.97;;;20.40;;
20318;SDS011;10317;47.254;11.314;2023-01-28T07:22:22;34.78;;;21.10;;
20318;SDS011;10317;47.254;11.314;2023-01-28T07:24:48;39.38;;;21.13;;
20318;SDS011;10317;47.254;11.314;2023-01-28T07:27:14;32.35;;;20.35;;
20318;SDS011;10317;47.254;11.314;2023-01-28T07:29:39;38.13;;;21.00;;
20318;SDS011;10317;47.254;11.314;2023-01-28T07:32:05;37.55;;;22.52;;
20318;SDS011;10317;47.254;11.314;2023-01-28T07:34:31;34.75;;;22.10;;
20318;SDS011;10317;47.254;11.314;2023-01-28T07:36:57;34.50;;;20.15;;
20318;SDS011;10317;47.254;11.314;2023-01-28T07:39:23;38.20;;;21.80;;
20318;SDS011;10317;47.254;11.314;2023-01-28T07:41:49;37.85;;;21.33;;
20318;SDS011;10317;47.254;11.314;2023-01-28T07:44:15;36.97;;;22.05;;
20318;SDS011;10317;47.254;11.314;2023-01-28T07:46:40;39.28;;;22.05;;
20318;SDS011;10317;47.254;11.314;2023-01-28T07:49:06;37.75;;;21.95;;
20318;SDS011;10317;47.254;11.314;2023-01-28T07:51:32;39.05;;;21.98;;
20318;SDS011;10317;47.254;11.314;2023-01-28T07:53:57;42.97;;;21.75;;
20318;SDS011;10317;47.254;11.314;2023-01-28T07:56:23;36.25;;;21.00;;
20318;SDS011;10317;47.254;11.314;2023-01-28T07:58:51;36.38;;;21.48;;
20318;SDS011;10317;47.254;11.314;2023-01-28T08:01:16;38.05;;;20.90;;
20318;SDS011;10317;47.254;11.314;2023-01-28T08:03:43;33.70;;;21.05;;
20318;SDS011;10317;47.254;11.314;2023-01-28T08:06:09;34.78;;;19.95;;
20318;SDS011;10317;47.254;11.314;2023-01-28T08:08:35;45.05;;;24.17;;
20318;SDS011;10317;47.254;11.314;2023-01-28T08:11:08;43.63;;;23.30;;
20318;SDS011;10317;47.254;11.314;2023-01-28T08:13:34;41.38;;;24.25;;
20318;SDS011;10317;47.254;11.314;2023-01-28T08:16:00;37.95;;;21.52;;
20318;SDS011;10317;47.254;11.314;2023-01-28T08:18:26;39.58;;;23.05;;
20318;SDS011;10317;47.254;11.314;2023-01-28T08:20:55;40.20;;;21.85;;
20318;SDS011;10317;47.254;11.314;2023-01-28T08:23:22;44.22;;;25.00;;
20318;SDS011;10317;47.254;11.314;2023-01-28T08:25:51;48.70;;;25.52;;
20318;SDS011;10317;47.254;11.314;2023-01-28T08:28:17;42.50;;;27.08;;
20318;SDS011;10317;47.254;11.314;2023-01-28T08:30:43;54.10;;;30.60;;
20318;SDS011;10317;47.254;11.314;2023-01-28T08:33:09;50.17;;;29.63;;
20318;SDS011;10317;47.254;11.314;2023-01-28T08:35:39;50.60;;;30.30;;
20318;SDS011;10317;47.254;11.314;2023-01-28T08:38:05;49.67;;;26.77;;
20318;SDS011;10317;47.254;11.314;2023-01-28T08:40:32;56.35;;;32.42;;
20318;SDS011;10317;47.254;11.314;2023-01-28T08:42:58;51.42;;;27.27;;
20318;SDS011;10317;47.254;11.314;2023-01-28T08:45:25;51.00;;;29.08;;
20318;SDS011;10317;47.254;11.314;2023-01-28T08:47:59;53.33;;;31.50;;
20318;SDS011;10317;47.254;11.314;2023-01-28T08:50:27;56.80;;;30.98;;
20318;SDS011;10317;47.254;11.314;2023-01-28T08:53:02;52.05;;;28.70;;
20318;SDS011;10317;47.254;11.314;2023-01-28T08:55:29;54.15;;;31.38;;
20318;SDS011;10317;47.254;11.314;2023-01-28T08:57:55;51.78;;;28.50;;
20318;SDS011;10317;47.254;11.314;2023-01-28T09:00:21;50.25;;;28.67;;
20318;SDS011;10317;47.254;11.314;2023-01-28T09:02:51;51.50;;;29.08;;
20318;SDS011;10317;47.254;11.314;2023-01-28T09:05:17;53.63;;;29.40;;
20318;SDS011;10317;47.254;11.314;2023-01-28T09:07:43;64.47;;;31.13;;
20318;SDS011;10317;47.254;11.314;2023-01-28T09:10:09;56.00;;;30.90;;
20318;SDS011;10317;47.254;11.314;2023-01-28T09:12:35;61.65;;;31.17;;
20318;SDS011;10317;47.254;11.314;2023-01-28T09:15:10;54.92;;;30.50;;
20318;SDS011;10317;47.254;11.314;2023-01-28T09:17:36;53.47;;;29.17;;
20318;SDS011;10317;47.254;11.314;2023-01-28T09:20:02;60.78;;;31.67;;
20318;SDS011;10317;47.254;11.314;2023-01-28T09:22:29;63.85;;;32.58;;
20318;SDS011;10317;47.254;11.314;2023-01-28T09:24:57;63.55;;;32.08;;
20318;SDS011;10317;47.254;11.314;2023-01-28T09:27:25;56.05;;;29.80;;
20318;SDS011;10317;47.254;11.314;2023-01-28T09:30:01;57.55;;;32.13;;
20318;SDS011;10317;47.254;11.314;2023-01-28T09:32:51;59.22;;;31.25;;
20318;SDS011;10317;47.254;11.314;2023-01-28T09:38:39;57.72;;;30.30;;
20318;SDS011;10317;47.254;11.314;2023-01-28T09:41:14;52.97;;;29.60;;
20318;SDS011;10317;47.254;11.314;2023-01-28T09:46:41;55.80;;;30.88;;
20318;SDS011;10317;47.254;11.314;2023-01-28T09:53:02;50.17;;;29.33;;
20318;SDS011;10317;47.254;11.314;2023-01-28T09:55:40;60.78;;;29.88;;
20318;SDS011;10317;47.254;11.314;2023-01-28T09:58:14;57.78;;;31.05;;
20318;SDS011;10317;47.254;11.314;2023-01-28T10:04:04;54.75;;;29.27;;
20318;SDS011;10317;47.254;11.314;2023-01-28T10:17:15;49.42;;;27.40;;
20318;SDS011;10317;47.254;11.314;2023-01-28T10:29:10;50.90;;;27.40;;
20318;SDS011;10317;47.254;11.314;2023-01-28T10:31:50;47.20;;;28.50;;
20318;SDS011;10317;47.254;11.314;2023-01-28T10:34:18;39.28;;;24.25;;
20318;SDS011;10317;47.254;11.314;2023-01-28T10:36:59;44.75;;;25.45;;
20318;SDS011;10317;47.254;11.314;2023-01-28T10:42:32;46.45;;;24.80;;
20318;SDS011;10317;47.254;11.314;2023-01-28T10:45:07;45.58;;;24.77;;
20318;SDS011;10317;47.254;11.314;2023-01-28T10:47:50;38.17;;;21.55;;
20318;SDS011;10317;47.254;11.314;2023-01-28T10:50:24;40.08;;;22.88;;
20318;SDS011;10317;47.254;11.314;2023-01-28T10:52:57;41.50;;;22.92;;
20318;SDS011;10317;47.254;11.314;2023-01-28T10:58:21;42.40;;;24.02;;
20318;SDS011;10317;47.254;11.314;2023-01-28T11:00:53;40.42;;;23.10;;
20318;SDS011;10317;47.254;11.314;2023-01-28T11:03:21;43.60;;;24.45;;
20318;SDS011;10317;47.254;11.314;2023-01-28T11:05:52;39.42;;;23.65;;
20318;SDS011;10317;47.254;11.314;2023-01-28T11:08:19;36.83;;;22.40;;
20318;SDS011;10317;47.254;11.314;2023-01-28T11:10:46;41.38;;;23.00;;
20318;SDS011;10317;47.254;11.314;2023-01-28T11:13:23;40.08;;;23.23;;
20318;SDS011;10317;47.254;11.314;2023-01-28T11:15:51;41.15;;;24.30;;
20318;SDS011;10317;47.254;11.314;2023-01-28T11:18:26;38.72;;;23.30;;
20318;SDS011;10317;47.254;11.314;2023-01-28T11:21:02;36.42;;;21.80;;
20318;SDS011;10317;47.254;11.314;2023-01-28T11:31:22;40.65;;;24.48;;
20318;SDS011;10317;47.254;11.314;2023-01-28T11:37:15;42.92;;;24.25;;
20318;SDS011;10317;47.254;11.314;2023-01-28T11:39:44;42.80;;;23.60;;
20318;SDS011;10317;47.254;11.314;2023-01-28T11:42:20;37.38;;;21.70;;
20318;SDS011;10317;47.254;11.314;2023-01-28T11:44:57;40.40;;;22.83;;
20318;SDS011;10317;47.254;11.314;2023-01-28T11:47:33;41.28;;;23.45;;
20318;SDS011;10317;47.254;11.314;2023-01-28T12:07:44;39.03;;;18.60;;
20318;SDS011;10317;47.254;11.314;2023-01-28T12:19:57;32.03;;;17.83;;
20318;SDS011;10317;47.254;11.314;2023-01-28T12:22:43;27.67;;;16.52;;
20318;SDS011;10317;47.254;11.314;2023-01-28T12:25:47;33.22;;;18.33;;
20318;SDS011;10317;47.254;11.314;2023-01-28T12:41:22;31.08;;;17.40;;
20318;SDS011;10317;47.254;11.314;2023-01-28T12:47:49;26.10;;;16.63;;
20318;SDS011;10317;47.254;11.314;2023-01-28T12:54:04;32.70;;;19.10;;
20318;SDS011;10317;47.254;11.314;2023-01-28T12:56:55;34.42;;;19.75;;
20318;SDS011;10317;47.254;11.314;2023-01-28T13:03:00;25.67;;;17.10;;
20318;SDS011;10317;47.254;11.314;2023-01-28T13:05:45;31.42;;;18.88;;
20318;SDS011;10317;47.254;11.314;2023-01-28T13:08:35;33.35;;;20.25;;
20318;SDS011;10317;47.254;11.314;2023-01-28T13:11:01;36.65;;;20.08;;
20318;SDS011;10317;47.254;11.314;2023-01-28T13:13:34;37.83;;;19.67;;
20318;SDS011;10317;47.254;11.314;2023-01-28T13:16:02;34.78;;;20.00;;
20318;SDS011;10317;47.254;11.314;2023-01-28T13:21:37;34.05;;;21.05;;
20318;SDS011;10317;47.254;11.314;2023-01-28T13:24:05;37.85;;;20.67;;
20318;SDS011;10317;47.254;11.314;2023-01-28T13:26:46;32.53;;;20.35;;
20318;SDS011;10317;47.254;11.314;2023-01-28T13:31:53;34.13;;;20.23;;
20318;SDS011;10317;47.254;11.314;2023-01-28T13:37:16;32.20;;;19.85;;
20318;SDS011;10317;47.254;11.314;2023-01-28T13:39:47;33.38;;;20.05;;
20318;SDS011;10317;47.254;11.314;2023-01-28T13:44:48;39.25;;;20.58;;
20318;SDS011;10317;47.254;11.314;2023-01-28T13:47:19;35.63;;;21.23;;
20318;SDS011;10317;47.254;11.314;2023-01-28T13:50:03;37.00;;;21.15;;
20318;SDS011;10317;47.254;11.314;2023-01-28T13:52:49;34.63;;;20.92;;
20318;SDS011;10317;47.254;11.314;2023-01-28T13:55:21;33.28;;;20.13;;
20318;SDS011;10317;47.254;11.314;2023-01-28T14:17:43;25.90;;;16.10;;
20318;SDS011;10317;47.254;11.314;2023-01-28T14:22:44;31.65;;;19.70;;
20318;SDS011;10317;47.254;11.314;2023-01-28T14:28:35;27.15;;;15.43;;
20318;SDS011;10317;47.254;11.314;2023-01-28T14:34:03;23.15;;;14.63;;
20318;SDS011;10317;47.254;11.314;2023-01-28T14:36:43;21.00;;;12.93;;
20318;SDS011;10317;47.254;11.314;2023-01-28T14:39:31;22.67;;;14.70;;
20318;SDS011;10317;47.254;11.314;2023-01-28T14:41:57;23.40;;;14.55;;
20318;SDS011;10317;47.254;11.314;2023-01-28T14:44:34;20.85;;;14.00;;
20318;SDS011;10317;47.254;11.314;2023-01-28T14:49:44;27.33;;;15.82;;
20318;SDS011;10317;47.254;11.314;2023-01-28T14:58:13;26.63;;;15.73;;
20318;SDS011;10317;47.254;11.314;2023-01-28T15:00:51;26.38;;;15.20;;
20318;SDS011;10317;47.254;11.314;2023-01-28T15:03:19;25.85;;;15.50;;
20318;SDS011;10317;47.254;11.314;2023-01-28T15:05:45;21.50;;;13.57;;
20318;SDS011;10317;47.254;11.314;2023-01-28T15:08:21;24.40;;;14.98;;
20318;SDS011;10317;47.254;11.314;2023-01-28T15:10:47;24.55;;;14.65;;
20318;SDS011;10317;47.254;11.314;2023-01-28T15:13:26;25.85;;;15.63;;
20318;SDS011;10317;47.254;11.314;2023-01-28T15:15:54;23.48;;;13.93;;
20318;SDS011;10317;47.254;11.314;2023-01-28T15:18:30;23.75;;;14.32;;
20318;SDS011;10317;47.254;11.314;2023-01-28T15:21:04;25.90;;;13.80;;
20318;SDS011;10317;47.254;11.314;2023-01-28T15:23:38;22.55;;;14.15;;
20318;SDS011;10317;47.254;11.314;2023-01-28T15:28:41;27.98;;;14.95;;
20318;SDS011;10317;47.254;11.314;2023-01-28T15:31:24;24.38;;;15.35;;
20318;SDS011;10317;47.254;11.314;2023-01-28T15:36:25;24.45;;;15.52;;
20318;SDS011;10317;47.254;11.314;2023-01-28T15:38:52;24.95;;;14.32;;
20318;SDS011;10317;47.254;11.314;2023-01-28T15:41:20;28.30;;;15.50;;
20318;SDS011;10317;47.254;11.314;2023-01-28T15:43:56;28.08;;;15.38;;
20318;SDS011;10317;47.254;11.314;2023-01-28T15:46:22;22.50;;;14.40;;
20318;SDS011;10317;47.254;11.314;2023-01-28T15:48:51;25.52;;;14.82;;
20318;SDS011;10317;47.254;11.314;2023-01-28T15:54:50;21.33;;;13.05;;
20318;SDS011;10317;47.254;11.314;2023-01-28T15:58:26;23.90;;;14.00;;
20318;SDS011;10317;47.254;11.314;2023-01-28T16:04:03;19.85;;;12.70;;
20318;SDS011;10317;47.254;11.314;2023-01-28T16:06:40;22.73;;;14.02;;
20318;SDS011;10317;47.254;11.314;2023-01-28T16:09:31;24.60;;;12.93;;
20318;SDS011;10317;47.254;11.314;2023-01-28T16:12:05;22.02;;;13.32;;
20318;SDS011;10317;47.254;11.314;2023-01-28T16:17:41;27.45;;;14.32;;
20318;SDS011;10317;47.254;11.314;2023-01-28T16:20:23;26.00;;;14.13;;
20318;SDS011;10317;47.254;11.314;2023-01-28T16:22:56;23.92;;;14.15;;
20318;SDS011;10317;47.254;11.314;2023-01-28T16:25:30;24.17;;;13.55;;
20318;SDS011;10317;47.254;11.314;2023-01-28T16:35:27;29.05;;;15.23;;
20318;SDS011;10317;47.254;11.314;2023-01-28T16:37:54;29.52;;;14.75;;
20318;SDS011;10317;47.254;11.314;2023-01-28T16:40:42;29.08;;;16.23;;
20318;SDS011;10317;47.254;11.314;2023-01-28T18:03:25;37.35;;;18.40;;
20318;SDS011;10317;47.254;11.314;2023-01-28T18:06:02;36.85;;;18.77;;
20318;SDS011;10317;47.254;11.314;2023-01-28T18:08:31;32.65;;;17.23;;
20318;SDS011;10317;47.254;11.314;2023-01-28T18:10:59;36.13;;;17.45;;
20318;SDS011;10317;47.254;11.314;2023-01-28T18:13:27;32.67;;;17.20;;
20318;SDS011;10317;47.254;11.314;2023-01-28T18:18:43;38.83;;;18.58;;
20318;SDS011;10317;47.254;11.314;2023-01-28T18:21:19;29.88;;;15.85;;
20318;SDS011;10317;47.254;11.314;2023-01-28T18:23:49;29.95;;;16.20;;
20318;SDS011;10317;47.254;11.314;2023-01-28T18:26:32;26.02;;;15.07;;
20318;SDS011;10317;47.254;11.314;2023-01-28T18:29:02;33.05;;;16.48;;
20318;SDS011;10317;47.254;11.314;2023-01-28T18:35:23;34.75;;;17.92;;
20318;SDS011;10317;47.254;11.314;2023-01-28T18:41:42;41.22;;;21.02;;
20318;SDS011;10317;47.254;11.314;2023-01-28T18:44:34;39.70;;;19.33;;
20318;SDS011;10317;47.254;11.314;2023-01-28T18:47:01;41.88;;;20.40;;
20318;SDS011;10317;47.254;11.314;2023-01-28T18:49:27;38.05;;;19.90;;
20318;SDS011;10317;47.254;11.314;2023-01-28T18:51:53;40.08;;;20.40;;
20318;SDS011;10317;47.254;11.314;2023-01-28T18:54:19;32.05;;;17.45;;
20318;SDS011;10317;47.254;11.314;2023-01-28T18:59:57;47.22;;;22.23;;
20318;SDS011;10317;47.254;11.314;2023-01-28T19:02:22;36.35;;;19.08;;
20318;SDS011;10317;47.254;11.314;2023-01-28T19:04:53;37.38;;;19.67;;
20318;SDS011;10317;47.254;11.314;2023-01-28T19:07:21;33.20;;;17.13;;
20318;SDS011;10317;47.254;11.314;2023-01-28T19:10:06;32.97;;;17.90;;
20318;SDS011;10317;47.254;11.314;2023-01-28T19:12:32;33.33;;;18.05;;
20318;SDS011;10317;47.254;11.314;2023-01-28T19:14:58;34.72;;;17.88;;
20318;SDS011;10317;47.254;11.314;2023-01-28T19:17:24;32.42;;;17.48;;
20318;SDS011;10317;47.254;11.314;2023-01-28T19:19:50;33.83;;;17.27;;
20318;SDS011;10317;47.254;11.314;2023-01-28T19:22:16;32.65;;;17.25;;
20318;SDS011;10317;47.254;11.314;2023-01-28T19:24:41;31.67;;;17.38;;
20318;SDS011;10317;47.254;11.314;2023-01-28T19:27:07;35.03;;;17.13;;
20318;SDS011;10317;47.254;11.314;2023-01-28T19:29:33;29.48;;;17.25;;
20318;SDS011;10317;47.254;11.314;2023-01-28T19:31:59;29.73;;;16.80;;
20318;SDS011;10317;47.254;11.314;2023-01-28T19:34:25;31.25;;;16.92;;
20318;SDS011;10317;47.254;11.314;2023-01-28T19:36:51;32.85;;;17.30;;
20318;SDS011;10317;47.254;11.314;2023-01-28T20:09:23;32.88;;;17.38;;
20318;SDS011;10317;47.254;11.314;2023-01-28T20:11:49;33.58;;;16.90;;
20318;SDS011;10317;47.254;11.314;2023-01-28T20:14:15;34.17;;;18.33;;
20318;SDS011;10317;47.254;11.314;2023-01-28T20:16:42;38.35;;;18.85;;
20318;SDS011;10317;47.254;11.314;2023-01-28T20:19:12;37.88;;;19.23;;
20318;SDS011;10317;47.254;11.314;2023-01-28T20:21:39;36.08;;;19.10;;
20318;SDS011;10317;47.254;11.314;2023-01-28T20:24:05;38.33;;;19.85;;
20318;SDS011;10317;47.254;11.314;2023-01-28T20:26:32;36.22;;;19.95;;
20318;SDS011;10317;47.254;11.314;2023-01-28T20:29:01;40.83;;;20.48;;
20318;SDS011;10317;47.254;11.314;2023-01-28T20:55:02;35.08;;;19.02;;
20318;SDS011;10317;47.254;11.314;2023-01-28T20:57:29;31.75;;;18.05;;
20318;SDS011;10317;47.254;11.314;2023-01-28T20:59:54;37.30;;;17.98;;
20318;SDS011;10317;47.254;11.314;2023-01-28T21:02:20;37.00;;;17.88;;
20318;SDS011;10317;47.254;11.314;2023-01-28T21:04:46;36.28;;;19.30;;
20318;SDS011;10317;47.254;11.314;2023-01-28T21:07:11;32.78;;;17.77;;
20318;SDS011;10317;47.254;11.314;2023-01-28T21:09:50;38.50;;;18.90;;
20318;SDS011;10317;47.254;11.314;2023-01-28T21:12:15;37.08;;;18.30;;
20318;SDS011;10317;47.254;11.314;2023-01-28T21:14:41;36.05;;;18.88;;
20318;SDS011;10317;47.254;11.314;2023-01-28T21:17:07;41.35;;;19.05;;
20318;SDS011;10317;47.254;11.314;2023-01-28T21:19:32;34.33;;;18.30;;
20318;SDS011;10317;47.254;11.314;2023-01-28T21:21:58;35.63;;;18.30;;
20318;SDS011;10317;47.254;11.314;2023-01-28T21:24:24;36.03;;;18.45;;